Kyokuhoumaru No.12 — JL5963 — position and weather

sailwx.info

Track history (hours):
 
Tides and Currents Weather Stations Pressure Air Temp Water Temp Dewpoint Dewpoint Depression Visibility Wind Speed Wind Dir Waves Ship Positions

Kyokuhoumaru No.12

Last reported at 2017-Mar-22 03:30 UTC. Time now 2017-Mar-24 02:07 UTC.
Position N 35°06' E 139°39'.

Length 57 m.

Type: Tanker. MMSI: 431500879.

Date/timePositionNaut miles runAvg speedWind from/ knotsBaromVisibWave heightAir tempDewpointWater temp
2017-Mar-22 03:30N 35°06' E 139°39'10 9.9
2017-Mar-22 02:32N 35°14' E 139°46'10 9.7
2017-Mar-22 01:32N 35°23' E 139°42'16 0.5
2017-Mar-20 17:09N 35°36' E 139°54'5 0.4
2017-Mar-20 03:29N 35°31' E 139°51'0 0.1
2017-Mar-20 00:32N 35°31' E 139°51'0 0.1
2017-Mar-19 23:32N 35°31' E 139°51'0 0.1
2017-Mar-19 22:11N 35°31' E 139°51'0 0.0
2017-Mar-19 16:15N 35°31' E 139°51'4 6.0
2017-Mar-19 15:31N 35°27' E 139°49'8 8.3
2017-Mar-19 14:33N 35°20' E 139°44'8 8.2
2017-Mar-19 13:33N 35°12' E 139°47'10 8.3
2017-Mar-19 12:24N 35°04' E 139°39'  
Track history (hours):
 
Tides and Currents Weather Stations Pressure Air Temp Water Temp Dewpoint Dewpoint Depression Visibility Wind Speed Wind Dir Waves Ship Positions

Kyokuhoumaru No.12

Last reported at 2017-Mar-22 03:30 UTC. Time now 2017-Mar-24 02:07 UTC.
Position N 35°06' E 139°39'.

Length 57 m.

Type: Tanker. MMSI: 431500879.

Date/timePositionNaut miles runAvg speedWind from/ knotsBaromVisibWave heightAir tempDewpointWater temp
2017-Mar-22 03:30N 35°06' E 139°39'10 9.9
2017-Mar-22 02:32N 35°14' E 139°46'10 9.7
2017-Mar-22 01:32N 35°23' E 139°42'16 0.5
2017-Mar-20 17:09N 35°36' E 139°54'5 0.4
2017-Mar-20 03:29N 35°31' E 139°51'0 0.1
2017-Mar-20 00:32N 35°31' E 139°51'0 0.1
2017-Mar-19 23:32N 35°31' E 139°51'0 0.1
2017-Mar-19 22:11N 35°31' E 139°51'0 0.0
2017-Mar-19 16:15N 35°31' E 139°51'4 6.0
2017-Mar-19 15:31N 35°27' E 139°49'8 8.3
2017-Mar-19 14:33N 35°20' E 139°44'8 8.2
2017-Mar-19 13:33N 35°12' E 139°47'10 8.3
2017-Mar-19 12:24N 35°04' E 139°39'  

Dump ship's entire track history